Terminal Aerodrome Forecast
Issued by NWS Portland, OR

Home | Current Version | Previous Version | Text Only | Print | Product List | Glossary On
Versions: 1 2 3 4 5 6 7 8 9 10 11 12 13 14 15 16 17 18 19 20 21 22 23 24 25 26 27 28 29 30
000
FTUS46 KPQR 301323 AAA
TAFSLE
TAF AMD
KSLE 301323Z 3013/3112 19003KT P6SM BKN007
     FM301600 19005KT P6SM SCT010
     FM302000 19008KT P6SM BKN200
     FM310500 19012KT P6SM -RA SCT040 OVC060
     FM310800 20007KT P6SM -RA SCT025 OVC050=

USA.gov is the U.S. government's official web portal to all federal, state and local government web resources and services.